Flight Track Log - Related Links

Times and Time Zones

All times are in EDT time to prevent confusion due to time zone crossing. See the CHQ6086 flight status page for this flight to view local times or setup timezone preferences in your user account.

Time Position Orientation Groundspeed Altitude Reporting Facility
EDT Latitude Longitude Course Direction KTS MPH feet Rate Location/Type
Sat 10:47:56 AM 35.0167 -89.9833 135° Southeast 170 196 900  Level Anchorage Center
Sat 10:50:13 AM 34.9333 -89.8833 66° East 276 318 4,500 1,890 Climbing Anchorage Center
Sat 10:52:10 AM 35.0000 -89.7000 60° Northeast 294 338 8,900 2,056 Climbing Anchorage Center
Sat 10:53:11 AM 35.0447 -89.6064 64° Northeast 345 397 10,600 1,636 Climbing Memphis Center
Sat 10:54:11 AM 35.0817 -89.5147 63° Northeast 304 350 12,200 1,650 Climbing Memphis Center
Sat 10:55:11 AM 35.1247 -89.4128 63° Northeast 304 350 13,900 1,650 Climbing Memphis Center
Sat 10:56:11 AM 35.1636 -89.3183 63° Northeast 304 350 15,500 1,500 Climbing Memphis Center
Sat 10:57:11 AM 35.2044 -89.2211 53° Northeast 309 356 16,900 1,400 Climbing Memphis Center
Sat 10:58:11 AM 35.2578 -89.1339 51° Northeast 309 356 18,300 1,350 Climbing Memphis Center
Sat 10:59:11 AM 35.3153 -89.0467 49° Northeast 315 362 19,600 1,300 Climbing Memphis Center
Sat 11:00:11 AM 35.3750 -88.9617 49° Northeast 322 371 20,900 1,350 Climbing Memphis Center
Sat 11:01:11 AM 35.4364 -88.8764 53° Northeast 322 371 22,300 1,300 Climbing Memphis Center
Sat 11:02:11 AM 35.4897 -88.7889 51° Northeast 327 376 23,500 1,200 Climbing Memphis Center
Sat 11:03:11 AM 35.5469 -88.7011 51° Northeast 327 376 24,700 1,100 Climbing Memphis Center
Sat 11:04:11 AM 35.6042 -88.6131 52° Northeast 327 376 25,700 950 Climbing Memphis Center
Sat 11:05:11 AM 35.6633 -88.5197 53° Northeast 334 384 26,600 650 Climbing Memphis Center
Sat 11:06:11 AM 35.7222 -88.4239 52° Northeast 342 394 27,000 450 Climbing Memphis Center
Sat 11:07:11 AM 35.7872 -88.3200 54° Northeast 359 413 27,500 1,000 Climbing Memphis Center
Sat 11:08:11 AM 35.8481 -88.2161 51° Northeast 371 427 29,000 1,400 Climbing Memphis Center
Sat 11:09:11 AM 35.9008 -88.1353 55° Northeast 366 421 30,300 1,400 Climbing Memphis Center
Sat 11:10:11 AM 35.9556 -88.0389 53° Northeast 346 398 31,800 1,150 Climbing Memphis Center
Sat 11:11:11 AM 36.0122 -87.9475 51° Northeast 341 392 32,600 850 Climbing Memphis Center
Sat 11:12:11 AM 36.0728 -87.8533 50° Northeast 341 392 33,500 900 Climbing Memphis Center
Sat 11:13:11 AM 36.1314 -87.7667 54° Northeast 341 392 34,400 750 Climbing Memphis Center
Sat 11:14:11 AM 36.1939 -87.6617 52° Northeast 341 392 35,000 300 Climbing Memphis Center
Sat 11:15:11 AM 36.2564 -87.5619 53° Northeast 352 405 35,000  Level Memphis Center
Sat 11:16:11 AM 36.3206 -87.4567 51° Northeast 374 430 35,000  Level Memphis Center
Sat 11:17:11 AM 36.3908 -87.3483 53° Northeast 388 447 35,000  Level Memphis Center
Sat 11:18:11 AM 36.4592 -87.2375 55° Northeast 400 460 35,000  Level Memphis Center
Sat 11:19:11 AM 36.5250 -87.1214 52° Northeast 400 460 35,000  Level Memphis Center
Sat 11:20:11 AM 36.5889 -87.0206 53° Northeast 400 460 35,000  Level Memphis Center
Sat 11:21:11 AM 36.6567 -86.9067 54° Northeast 400 460 35,000  Level Memphis Center
Sat 11:22:11 AM 36.7222 -86.7950 44° Northeast 400 460 35,000  Level Memphis Center
Sat 11:27:36 AM 37.1372 -86.2900 29° Northeast 385 443 35,000  Level Indianapolis Center
Sat 11:28:36 AM 37.2283 -86.2253 30° Northeast 385 443 35,000  Level Indianapolis Center
Sat 11:29:36 AM 37.3217 -86.1583 30° Northeast 380 437 35,000  Level Indianapolis Center
Sat 11:30:36 AM 37.4211 -86.0858 29° Northeast 380 437 35,000  Level Indianapolis Center
Sat 11:31:36 AM 37.5122 -86.0208 33° Northeast 380 437 35,000  Level Indianapolis Center
Sat 11:32:36 AM 37.5992 -85.9503 20° North 374 430 35,000 -250 Level Indianapolis Center
Sat 11:33:36 AM 37.6983 -85.9036 North 374 430 34,500 -500 Descending Indianapolis Center
Sat 11:34:36 AM 37.8050 -85.8833 North 374 430 34,000 -600 Descending Indianapolis Center
Sat 11:35:36 AM 37.9097 -85.8631 North 381 438 33,300 -850 Descending Indianapolis Center
Sat 11:36:36 AM 38.0186 -85.8453 North 387 445 32,300 -1,050 Descending Indianapolis Center
Sat 11:37:36 AM 38.1294 -85.8250 28° Northeast 393 452 31,200 -550 Descending Indianapolis Center
Sat 11:42:36 AM 38.5897 -85.5100 57° Northeast 392 451 29,000 -367 Descending Indianapolis Center
Sat 11:43:36 AM 38.6503 -85.3919 56° Northeast 405 466 29,000 -250 Level Indianapolis Center
Sat 11:44:36 AM 38.7144 -85.2683 56° Northeast 405 466 28,500 -750 Descending Indianapolis Center
Sat 11:45:36 AM 38.7789 -85.1447 56° Northeast 410 472 27,500 -1,100 Descending Indianapolis Center
Sat 11:46:36 AM 38.8431 -85.0233 56° Northeast 410 472 26,300 -1,300 Descending Indianapolis Center
Sat 11:47:36 AM 38.9092 -84.8967 55° Northeast 410 472 24,900 -1,200 Descending Indianapolis Center
Sat 11:48:36 AM 38.9731 -84.7803 54° Northeast 403 464 23,900 -450 Descending Indianapolis Center
Sat 11:49:36 AM 39.0389 -84.6639 55° Northeast 398 458 24,000 -300 Climbing Indianapolis Center
Sat 11:50:36 AM 39.1044 -84.5444 54° Northeast 403 464 23,300 -900 Descending Indianapolis Center
Sat 11:51:36 AM 39.1722 -84.4222 54° Northeast 408 470 22,200 -1,050 Descending Indianapolis Center
Sat 11:52:36 AM 39.2314 -84.3156 55° Northeast 408 470 21,200 -1,050 Descending Indianapolis Center
Sat 11:53:36 AM 39.2986 -84.1931 62° Northeast 408 470 20,100 -1,150 Descending Indianapolis Center
Sat 11:54:36 AM 39.3514 -84.0644 64° Northeast 408 470 18,900 -1,150 Descending Indianapolis Center
Sat 11:55:36 AM 39.4000 -83.9331 64° Northeast 403 464 17,800 -1,100 Descending Indianapolis Center
Sat 11:56:36 AM 39.4483 -83.8044 65° Northeast 403 464 16,700 -1,350 Descending Indianapolis Center
Sat 11:57:36 AM 39.4942 -83.6753 64° Northeast 403 464 15,100 -2,000 Descending Indianapolis Center
Sat 11:58:36 AM 39.5403 -83.5544 64° Northeast 383 441 12,700 -2,050 Descending Indianapolis Center
Sat 11:59:36 AM 39.5839 -83.4383 42° Northeast 361 415 11,000 -1,403 Descending Indianapolis Center
Sat 11:59:53 AM 39.6089 -83.4089 27° Northeast 360 414 10,900 -1,000 Descending Indianapolis Center
Sat 12:00:36 PM 39.6611 -83.3736 25° Northeast 328 377 10,000 -1,456 Descending Indianapolis Center
Sat 12:01:36 PM 39.7361 -83.3275 25° Northeast 303 349 8,400 -1,700 Descending Indianapolis Center
Sat 12:02:36 PM 39.8108 -83.2814 19° North 296 341 6,600 -1,765 Descending Indianapolis Center
Sat 12:03:01 PM 39.8464 -83.2650 27° Northeast 289 333 5,900 -1,500 Descending Indianapolis Center
Sat 12:03:36 PM 39.8839 -83.2406 22° Northeast 290 334 5,100 -1,154 Descending Indianapolis Center
Sat 12:04:45 PM 39.9669 -83.1967 59° Northeast 256 295 3,900 -950 Descending Indianapolis Center
Sat 12:05:36 PM 39.9919 -83.1425 53° Northeast 233 268 3,200 -806 Descending Indianapolis Center
Sat 12:05:52 PM 40.0044 -83.1206 77° East 235 270 3,000 -300 Descending Indianapolis Center
Sat 12:06:36 PM 40.0144 -83.0636 112° Southeast 220 253 2,900 -197 Descending Indianapolis Center
Sat 12:06:53 PM 40.0103 -83.0503 93° East 184 212 2,800 -800 Descending Indianapolis Center
Sat 12:07:36 PM 40.0081 -82.9986 93° East 189 217 2,100 -816 Descending Indianapolis Center
Sat 12:08:36 PM 40.0056 -82.9419 100° East 174 200 1,400 -759 Descending Indianapolis Center
Sat 12:08:55 PM 40.0033 -82.9256 187° South 151 174 1,100 200 Descending Indianapolis Center
Sat 12:09:36 PM 39.9492 -82.9342 187° South 166 191 1,600 732 Climbing Indianapolis Center

Login

Don't have an account? Register now (free) for customized features, flight alerts, and more!